Huvudsida
METAR-TAF:

METAR-TAF

Flygplatser :

Bahrains internationella flygplats

Bahrain, Bahrain

latitud: 26-16N, longitud: 050-39E, höjd: 2 m

Aktuellt väderrapport

Denna rapport gjordes för 10 minuter sedan, klockan 00:30 UTC
Vind 5 kt från nord
Temperatur 22°C
Fuktighet 57%
Tryck 1016 hPa
Sikt 10 km eller mer
Inga moln under 1 500 m eller inga cumulonimbus

METAR: OBBI 100030Z 36005KT CAVOK 22/13 Q1016 NOSIG

Tid: 03:40 (00:40 UTC)

Väderprognos

Denna rapport gjordes för 1 timme och 40 minuter sedan, klockan 23:00 UTC
Prognos gäller från 10 kl. 00 UTC till 11 kl. 06 UTC
Vind 8 kt från nord
Sikt 10 km eller mer
Inga moln under 1 500 m eller inga cumulonimbus

TAF: OBBI 092300Z 1000/1106 01008KT CAVOK

Aktuella väderrapporter och prognoser från 4000 flygplatser (METAR- och TAF-rapporter).

De tillgängliga stationerna syns som gula och röda prickar på kartan.

För musen över prickarna för att se namnen på stationerna.

Klicka sedan för att få väderrapporter och prognoser.

För att ändra kartan: Klicka på de gröna knapparna med ett svart kors på för att zooma in; den gröna knappen med ett streck på för att zooma ut; eller på de gröna pilarna för angränsande kartor.


METAR-TAF: